Sunday, December 17, 2017, 2:45 PM EST
Back to Local

KBDL, Bradley International Airport

Location: Windsor Locks, CT, United States Lat: 41.933
Local Time: 2:45 PM EST (19:45 GMT) Lon: -72.683
Time Zone: US/Eastern Elev: 173 ft

Show me the last for .
Show Decoded

2017-12-17 13:51 METAR KBDL 171851Z 29009KT 10SM BKN230 OVC250 M02/M13 A3023 RMK AO2 SLP241
                 T10171128 =
2017-12-17 12:51 METAR KBDL 171751Z 31009KT 10SM FEW220 BKN250 M02/M13 A3025 RMK AO2 SLP247 4/002
                 T10221133 11017 21117 58017 =
2017-12-17 11:51 METAR KBDL 171651Z 36006KT 10SM FEW100 SCT220 M02/M12 A3027 RMK AO2 SLP252
                 T10221122 =
2017-12-17 10:51 METAR KBDL 171551Z 04003KT 10SM FEW095 FEW250 M03/M12 A3029 RMK AO2 SLP261
                 T10331117 =
2017-12-17 09:51 METAR KBDL 171451Z 02003KT 10SM FEW100 FEW250 M05/M12 A3030 RMK AO2 SLP264
                 T10501122 51009 =
2017-12-17 08:51 METAR KBDL 171351Z 00000KT 10SM SCT100 SCT250 M06/M12 A3030 RMK AO2 SLP262
                 T10611122 =
2017-12-17 07:51 METAR KBDL 171251Z 14003KT 10SM FEW130 FEW250 M09/M13 A3029 RMK AO2 SLP259
                 T10941128 =
2017-12-17 06:51 METAR KBDL 171151Z 06004KT 10SM FEW130 FEW250 M09/M13 A3028 RMK AO2 SLP255 4/002
                 T10941133 11067 21111 51010 =
2017-12-17 05:51 METAR KBDL 171051Z 31005KT 10SM CLR M10/M13 A3027 RMK AO2 SLP252 T11001128 =
2017-12-17 04:51 METAR KBDL 170951Z 28006KT 10SM CLR M10/M12 A3028 RMK AO2 SLP255 T11001122 =
2017-12-17 03:51 METAR KBDL 170851Z 27008KT 10SM CLR M10/M13 A3025 RMK AO2 SLP245 T11001128 51015
                 =
2017-12-17 02:51 METAR KBDL 170751Z 28007KT 10SM CLR M09/M12 A3024 RMK AO2 SLP243 T10891122 =
2017-12-17 01:51 METAR KBDL 170651Z 29006KT 10SM CLR M07/M12 A3022 RMK AO2 SLP237 T10721117 =
2017-12-17 00:51 METAR KBDL 170551Z 32006KT 10SM CLR M06/M12 A3020 RMK AO2 SLP230 4/002 T10611117
                 11022 21067 51008 =
2017-12-16 23:51 METAR KBDL 170451Z 00000KT 10SM CLR M07/M12 A3020 RMK AO2 SLP228 T10671117
                 400001106 =
2017-12-16 22:51 METAR KBDL 170351Z 00000KT 10SM CLR M06/M11 A3019 RMK AO2 SLP226 T10561111 =
2017-12-16 21:51 METAR KBDL 170251Z 30008KT 10SM FEW035 M04/M11 A3018 RMK AO2 SLP222 T10441106
                 51032 =
2017-12-16 20:51 METAR KBDL 170151Z 31008KT 10SM FEW049 M03/M09 A3016 RMK AO2 SLP215 T10331094 =
2017-12-16 19:51 METAR KBDL 170051Z 34005KT 10SM FEW090 M03/M08 A3013 RMK AO2 SLP204 T10281083 =
2017-12-16 18:51 METAR KBDL 162351Z 30008KT 10SM SCT095 M02/M07 A3008 RMK AO2 SLP189 4/002 60000
                 T10221072 10000 21028 51040 =
2017-12-16 17:51 METAR KBDL 162251Z 31007KT 10SM SCT055 SCT075 BKN095 BKN140 M02/M06 A3005 RMK
                 AO2 SLP179 T10171061 =
2017-12-16 16:51 METAR KBDL 162151Z COR 30006KT 9SM OVC043 M01/M05 A3001 RMK AO2 SNB26E50 SLP165
                 P0000 T10111050 =
2017-12-16 15:51 METAR KBDL 162051Z 29007KT 10SM FEW065 BKN085 00/M07 A2996 RMK AO2 SLP149
                 T00001072 53015 =
2017-12-16 14:51 METAR KBDL 161951Z 27008KT 10SM FEW040 BKN090 00/M07 A2994 RMK AO2 SLP141
                 T00001067 =

Support USWX by starting your Amazon purchase here.